Report METAR

 

LIPQ - Ronchi Legionari, Italy
Distance from station: SSO 3km
Dati ricevuti: 26/05/2017 20:20
Sereno
Sereno
 Vento da E
Vento: E 11 km/h
Temperatura: 19°C
P.to Rugiada: 15°C
Umidità: 78%
Barometro: 1018 hPa
Summary: Sereno
Visibility: superiore a 10 km
2017/05/26 20:20 LIPQ 262020Z 10006KT CAVOK 19/15 Q1018
LIVT - Trieste, Italy
Distance from station: SE 27km
Dati ricevuti: 26/05/2017 19:55
Sereno
Sereno
 Vento da NE
Vento: NE 2 km/h
Temperatura: 19°C
P.to Rugiada: 15°C
Umidità: 78%
Barometro: 1017 hPa
Summary: Sereno
Visibility: superiore a 10 km
2017/05/26 19:55 LIVT 261955Z 04001KT CAVOK 19/15 Q1017 RMK SKC QUK / QUL / VIS MAR 10 KM VIS MIN 9999
 
LIPI - Rivolto (it-Afb), Italy
Distance from station: ONO 37km
Dati ricevuti: 26/05/2017 19:55
Sereno
Sereno
 Vento da Variabile
Vento: Variabile 0 km/h
Temperatura: 19°C
P.to Rugiada: 14°C
Umidità: 73%
Barometro: 1017 hPa
Summary: Sereno
Visibility: superiore a 10 km
2017/05/26 19:55 LIPI 261955Z /////KT CAVOK 19/14 Q1017 RMK SKC VIS MIN 9999 WIND THR06 15001KT WIND THR24 VRB01KT BLU
LJPZ - Portoroz, Slovenia
Distance from station: SSE 43km
Dati ricevuti: 26/05/2017 20:30
Sereno
Sereno
 Vento da SE
Vento: SE 13 km/h
Temperatura: 16°C
P.to Rugiada: 12°C
Umidità: 77%
Barometro: 1018 hPa
Nuvole: Sereno
Visibility: 10 km
2017/05/26 20:30 LJPZ 262030Z AUTO 13007KT 9999 NCD 16/12 Q1018
 
LIYW - Aviano (usaf), Italy
Distance from station: ONO 70km
Dati ricevuti: 20/10/2015 13:58
DATI Obsoleti
Sereno
Sereno
 Vento da SSO
Vento: SSO 6 km/h
Temperatura: 17°C
P.to Rugiada: 3°C
Umidità: 39%
Barometro: 1016.3 hPa
Nuvole: Sereno
Visibility: 10 km
2015/10/20 13:58 LIYW 201358Z AUTO 21003KT 9999 CLR 17/03 A3001 RMK AO2 SLP167 T01660029
LIPA - Aviano (it/Us-Af, Italy
Distance from station: ONO 73km
Dati ricevuti: 26/05/2017 19:55
Sereno
Sereno
 Vento da SSO
Vento: SSO 2 km/h
Temperatura: 20°C
P.to Rugiada: 15°C
Umidità: 73%
Barometro: 1017 hPa
Summary: Sereno
Visibility: superiore a 10 km
2017/05/26 19:55 LIPA 261955Z 21001KT CAVOK 20/15 Q1017 RMK SKC VIS MIN 9999 WIND THR05 00000KT WIND THR23 00000KT A3006 BLU
 
LIVO - Tarvisio, Italy
Distance from station: N 73km
Dati ricevuti: 26/05/2017 17:55
DATI Obsoleti
Few Clouds
Few Clouds
 Vento da ENE
Vento: ENE 6 km/h
Temperatura: 21°C
P.to Rugiada: 9°C
Umidità: 46%
Barometro: 1017 hPa
Nuvole: Few Clouds
Visibility: 10 km
Cloud details: Few Clouds 1524 m
2017/05/26 17:55 LIVO 261755Z 07003KT 9999 FEW050 21/09 Q1017 RMK FEW VIS MIN 9999
LJLJ - Ljubljana/Brnik, Slovenia
Distance from station: ENE 86km
Dati ricevuti: 26/05/2017 20:30
Few Clouds
Few Clouds
 Vento da Variabile
Vento: Variabile 2 km/h
Temperatura: 14°C
P.to Rugiada: 10°C
Umidità: 77%
Barometro: 1020 hPa
Nuvole: Few Clouds
Visibility: 10 km
Cloud details: Few Clouds 1829 m
2017/05/26 20:30 LJLJ 262030Z VRB01KT 9999 FEW060 14/10 Q1020 NOSIG
 
LIPZ - Venezia/Tessera, Italy
Distance from station: OSO 96km
Dati ricevuti: 26/05/2017 20:20
Sereno
Sereno
 Vento da S
Vento: S 19 km/h
Temperatura: 21°C
P.to Rugiada: 13°C
Umidità: 60%
Barometro: 1018 hPa
Summary: Sereno
Visibility: superiore a 10 km
2017/05/26 20:20 LIPZ 262020Z 18010KT CAVOK 21/13 Q1018 NOSIG
LIPH - Treviso(Civ/It-A, Italy
Distance from station: OSO 105km
Dati ricevuti: 26/05/2017 20:20
Sereno
Sereno
 Vento da Variabile
Vento: Variabile 4 km/h
Temperatura: 20°C
P.to Rugiada: 14°C
Umidità: 69%
Barometro: 1018 hPa
Summary: Sereno
Visibility: superiore a 10 km
2017/05/26 20:20 LIPH 262020Z VRB02KT CAVOK 20/14 Q1018
 
LDRI - Rijeka/Omisalj, Croatia
Distance from station: SE 109km
Dati ricevuti: 26/05/2017 20:30
Sereno
Sereno
 Vento da NE
Vento: NE 9 km/h
Temperatura: 19°C
P.to Rugiada: 8°C
Umidità: 49%
Barometro: 1018 hPa
Summary: Sereno
Visibility: superiore a 10 km
2017/05/26 20:30 LDRI 262030Z 04005KT CAVOK 19/08 Q1018
LOWK - Klagenfurt(Civ/M, Austria
Distance from station: NE 110km
Dati ricevuti: 26/05/2017 20:20
Sereno
Sereno
 Vento da E
Vento: E 11 km/h
Temperatura: 19°C
P.to Rugiada: 8°C
Umidità: 49%
Barometro: 1020 hPa
Nuvole: Sereno
Visibility: 10 km
2017/05/26 20:20 LOWK 262020Z AUTO 08006KT 040V110 9999 NCD 19/08 Q1020 NOSIG
 
LIPS - Istrana (it-Afb), Italy
Distance from station: O 111km
Dati ricevuti: 26/05/2017 19:55
Sereno
Sereno
 Vento da S
Vento: S 6 km/h
Temperatura: 21°C
P.to Rugiada: 16°C
Umidità: 73%
Barometro: 1017 hPa
Summary: Sereno
Visibility: superiore a 10 km
2017/05/26 19:55 LIPS 261955Z 19003KT CAVOK 21/16 Q1017 RMK SKC VIS MIN 9999 WIND THR26 17002KT WIND THR08 18002KT BLU
LDPL - Pula, Croatia
Distance from station: SSE 112km
Dati ricevuti: 26/05/2017 20:30
Sereno
Sereno
 Vento da N
Vento: N 7 km/h
Temperatura: 15°C
P.to Rugiada: 13°C
Umidità: 88%
Barometro: 1019 hPa
Summary: Sereno
Visibility: superiore a 10 km
2017/05/26 20:30 LDPL 262030Z 01004KT CAVOK 15/13 Q1019 NOSIG
 
LIVD - Dobbiaco, Italy
Distance from station: NO 138km
Dati ricevuti: 26/05/2017 17:55
DATI Obsoleti
Sereno
Sereno
 Vento da Variabile
Vento: Variabile 0 km/h
Temperatura: 21°C
P.to Rugiada: 4°C
Umidità: 33%
Barometro: 1019 hPa
Summary: Sereno
Visibility: superiore a 10 km
2017/05/26 17:55 LIVD 261755Z /////KT CAVOK 21/04 Q1019 RMK SKC VIS MIN 9999
LIPU - Padova (civ/It-A, Italy
Distance from station: OSO 139km
Dati ricevuti: 26/05/2017 06:00
DATI Obsoleti
Parz. nuvoloso
Parz. nuvoloso
 Vento da Variabile
Vento: Variabile 4 km/h
Temperatura: 18°C
P.to Rugiada: 13°C
Umidità: 73%
Barometro: 1019 hPa
Nuvole: Parz. nuvoloso
Visibility: 10 km
Cloud details: Parz. nuvoloso 1524 m
2017/05/26 06:00 LIPU 260600Z VRB02KT 9999 SCT050 18/13 Q1019
 
LIVR - Rolle Pass, Italy
Distance from station: ONO 142km
Dati ricevuti: 26/05/2017 17:55
DATI Obsoleti
Sereno
Sereno
 Vento da ENE
Vento: ENE 19 km/h
Temperatura: 10°C
Temperatura Vento: 7°C
P.to Rugiada: 8°C
Umidità: 88%
Barometro: 1022 hPa
Summary: Sereno
Visibility: superiore a 10 km
2017/05/26 17:55 LIVR 261755Z 07010KT CAVOK 10/08 Q1022 RMK SKC MON LIB VIS MIN 9999
LJCE - Cerklje, Slovenia
Distance from station: E 157km
Dati ricevuti: 26/05/2017 20:30
Sereno
Sereno
 Vento da calmo
Vento: Calma
Temperatura: 14°C
P.to Rugiada: 10°C
Umidità: 77%
Barometro: 1019 hPa
Nuvole: Sereno
Visibility: 10 km
2017/05/26 20:30 LJCE 262030Z AUTO 00000KT 9999 NCD 14/10 Q1019
 
LDLO - Losinj Island, Croatia
Distance from station: SSE 159km
Dati ricevuti: 26/05/2017 14:00
DATI Obsoleti
Sereno
Sereno
 Vento da NNE
Vento: NNE 20 km/h
Temperatura: 25°C
P.to Rugiada: 8°C
Umidità: 34%
Barometro: 1017 hPa
Summary: Sereno
Visibility: superiore a 10 km
2017/05/26 14:00 LDLO 261400Z 02011KT CAVOK 25/08 Q1017
LOWZ - Zell Am See, Austria
Distance from station: NNO 171km
Dati ricevuti: 31/12/2016 16:00
DATI Obsoleti
Sereno
Sereno
 Vento da Variabile
Vento: Variabile 4 km/h
Temperatura: -4°C
P.to Rugiada: -7°C
Umidità: 80%
Barometro: 1031 hPa
Nuvole: Sereno
2016/12/31 16:00 LOWZ 311600Z VRB02KT 50KM SKC M04/M07 Q1031